sensor_id;sensor_type;location;lat;lon;timestamp;P1;durP1;ratioP1;P2;durP2;ratioP2
12788;SDS011;6458;42.710;23.192;2023-03-09T00:02:12;3.40;;;3.20;;
12788;SDS011;6458;42.710;23.192;2023-03-09T00:04:39;3.17;;;2.90;;
12788;SDS011;6458;42.710;23.192;2023-03-09T00:07:05;3.10;;;2.90;;
12788;SDS011;6458;42.710;23.192;2023-03-09T00:09:32;2.83;;;2.73;;
12788;SDS011;6458;42.710;23.192;2023-03-09T00:11:59;2.90;;;2.70;;
12788;SDS011;6458;42.710;23.192;2023-03-09T00:14:26;3.10;;;2.90;;
12788;SDS011;6458;42.710;23.192;2023-03-09T00:16:54;3.00;;;2.90;;
12788;SDS011;6458;42.710;23.192;2023-03-09T00:19:21;6.20;;;3.30;;
12788;SDS011;6458;42.710;23.192;2023-03-09T00:21:52;3.50;;;3.30;;
12788;SDS011;6458;42.710;23.192;2023-03-09T00:24:20;3.10;;;2.90;;
12788;SDS011;6458;42.710;23.192;2023-03-09T00:26:50;3.13;;;2.93;;
12788;SDS011;6458;42.710;23.192;2023-03-09T00:29:17;3.10;;;2.90;;
12788;SDS011;6458;42.710;23.192;2023-03-09T00:31:44;3.13;;;2.80;;
12788;SDS011;6458;42.710;23.192;2023-03-09T00:34:12;3.07;;;2.83;;
12788;SDS011;6458;42.710;23.192;2023-03-09T00:36:40;3.47;;;3.27;;
12788;SDS011;6458;42.710;23.192;2023-03-09T00:39:07;3.17;;;2.87;;
12788;SDS011;6458;42.710;23.192;2023-03-09T00:41:34;3.80;;;3.50;;
12788;SDS011;6458;42.710;23.192;2023-03-09T00:44:02;3.47;;;3.17;;
12788;SDS011;6458;42.710;23.192;2023-03-09T00:46:29;3.43;;;3.03;;
12788;SDS011;6458;42.710;23.192;2023-03-09T00:48:56;3.07;;;2.87;;
12788;SDS011;6458;42.710;23.192;2023-03-09T00:51:25;3.30;;;3.00;;
12788;SDS011;6458;42.710;23.192;2023-03-09T00:53:52;2.87;;;2.67;;
12788;SDS011;6458;42.710;23.192;2023-03-09T00:56:21;3.07;;;2.97;;
12788;SDS011;6458;42.710;23.192;2023-03-09T00:58:51;3.27;;;3.03;;
12788;SDS011;6458;42.710;23.192;2023-03-09T01:01:18;3.20;;;2.90;;
12788;SDS011;6458;42.710;23.192;2023-03-09T01:03:46;2.70;;;2.50;;
12788;SDS011;6458;42.710;23.192;2023-03-09T01:06:13;3.07;;;2.70;;
12788;SDS011;6458;42.710;23.192;2023-03-09T01:08:41;4.07;;;3.07;;
12788;SDS011;6458;42.710;23.192;2023-03-09T01:11:08;3.57;;;3.27;;
12788;SDS011;6458;42.710;23.192;2023-03-09T01:19:23;3.27;;;3.07;;
12788;SDS011;6458;42.710;23.192;2023-03-09T01:21:50;3.37;;;3.07;;
12788;SDS011;6458;42.710;23.192;2023-03-09T01:24:18;4.27;;;2.87;;
12788;SDS011;6458;42.710;23.192;2023-03-09T01:26:45;3.50;;;3.20;;
12788;SDS011;6458;42.710;23.192;2023-03-09T01:29:11;3.00;;;2.90;;
12788;SDS011;6458;42.710;23.192;2023-03-09T01:31:38;3.97;;;3.67;;
12788;SDS011;6458;42.710;23.192;2023-03-09T01:34:05;2.73;;;2.63;;
12788;SDS011;6458;42.710;23.192;2023-03-09T01:36:31;3.27;;;2.97;;
12788;SDS011;6458;42.710;23.192;2023-03-09T01:38:58;3.90;;;3.50;;
12788;SDS011;6458;42.710;23.192;2023-03-09T01:41:26;4.00;;;3.60;;
12788;SDS011;6458;42.710;23.192;2023-03-09T01:43:53;3.77;;;3.33;;
12788;SDS011;6458;42.710;23.192;2023-03-09T01:49:12;5.50;;;4.87;;
12788;SDS011;6458;42.710;23.192;2023-03-09T01:51:40;6.33;;;5.73;;
12788;SDS011;6458;42.710;23.192;2023-03-09T01:54:08;7.17;;;6.33;;
12788;SDS011;6458;42.710;23.192;2023-03-09T01:56:38;9.03;;;7.00;;
12788;SDS011;6458;42.710;23.192;2023-03-09T01:59:06;8.63;;;7.53;;
12788;SDS011;6458;42.710;23.192;2023-03-09T02:01:34;10.30;;;7.70;;
12788;SDS011;6458;42.710;23.192;2023-03-09T02:04:03;10.03;;;6.10;;
12788;SDS011;6458;42.710;23.192;2023-03-09T02:06:30;5.87;;;5.47;;
12788;SDS011;6458;42.710;23.192;2023-03-09T02:08:59;5.70;;;5.20;;
12788;SDS011;6458;42.710;23.192;2023-03-09T02:11:27;6.03;;;4.90;;
12788;SDS011;6458;42.710;23.192;2023-03-09T02:13:55;7.87;;;5.70;;
12788;SDS011;6458;42.710;23.192;2023-03-09T02:16:22;10.23;;;5.63;;
12788;SDS011;6458;42.710;23.192;2023-03-09T02:18:49;6.10;;;4.60;;
12788;SDS011;6458;42.710;23.192;2023-03-09T02:21:17;5.60;;;4.83;;
12788;SDS011;6458;42.710;23.192;2023-03-09T02:23:48;5.97;;;5.37;;
12788;SDS011;6458;42.710;23.192;2023-03-09T02:26:18;10.80;;;5.93;;
12788;SDS011;6458;42.710;23.192;2023-03-09T02:28:48;9.43;;;6.03;;
12788;SDS011;6458;42.710;23.192;2023-03-09T02:31:15;10.57;;;5.40;;
12788;SDS011;6458;42.710;23.192;2023-03-09T02:33:42;7.97;;;5.80;;
12788;SDS011;6458;42.710;23.192;2023-03-09T02:36:09;8.20;;;5.97;;
12788;SDS011;6458;42.710;23.192;2023-03-09T02:38:36;8.73;;;6.20;;
12788;SDS011;6458;42.710;23.192;2023-03-09T02:41:03;8.67;;;6.00;;
12788;SDS011;6458;42.710;23.192;2023-03-09T02:43:30;7.77;;;5.80;;
12788;SDS011;6458;42.710;23.192;2023-03-09T02:46:00;7.67;;;5.53;;
12788;SDS011;6458;42.710;23.192;2023-03-09T02:48:26;8.50;;;5.97;;
12788;SDS011;6458;42.710;23.192;2023-03-09T02:50:53;8.37;;;6.23;;
12788;SDS011;6458;42.710;23.192;2023-03-09T02:53:20;8.53;;;6.20;;
12788;SDS011;6458;42.710;23.192;2023-03-09T02:55:46;7.60;;;5.27;;
12788;SDS011;6458;42.710;23.192;2023-03-09T02:58:13;4.73;;;4.00;;
12788;SDS011;6458;42.710;23.192;2023-03-09T03:00:39;8.63;;;5.50;;
12788;SDS011;6458;42.710;23.192;2023-03-09T03:03:07;7.47;;;5.20;;
12788;SDS011;6458;42.710;23.192;2023-03-09T03:05:34;6.23;;;5.40;;
12788;SDS011;6458;42.710;23.192;2023-03-09T03:08:01;9.20;;;6.10;;
12788;SDS011;6458;42.710;23.192;2023-03-09T03:10:28;10.77;;;5.23;;
12788;SDS011;6458;42.710;23.192;2023-03-09T03:12:54;7.20;;;5.83;;
12788;SDS011;6458;42.710;23.192;2023-03-09T03:15:21;8.03;;;6.00;;
12788;SDS011;6458;42.710;23.192;2023-03-09T03:17:48;9.07;;;5.83;;
12788;SDS011;6458;42.710;23.192;2023-03-09T03:20:16;8.50;;;6.63;;
12788;SDS011;6458;42.710;23.192;2023-03-09T03:22:43;9.33;;;6.43;;
12788;SDS011;6458;42.710;23.192;2023-03-09T03:25:10;10.20;;;6.27;;
12788;SDS011;6458;42.710;23.192;2023-03-09T03:27:37;7.70;;;6.00;;
12788;SDS011;6458;42.710;23.192;2023-03-09T03:30:03;6.30;;;5.70;;
12788;SDS011;6458;42.710;23.192;2023-03-09T03:32:30;11.13;;;6.83;;
12788;SDS011;6458;42.710;23.192;2023-03-09T03:34:57;8.33;;;5.70;;
12788;SDS011;6458;42.710;23.192;2023-03-09T03:37:25;7.37;;;5.83;;
12788;SDS011;6458;42.710;23.192;2023-03-09T03:39:52;6.80;;;5.77;;
12788;SDS011;6458;42.710;23.192;2023-03-09T03:42:19;7.30;;;5.17;;
12788;SDS011;6458;42.710;23.192;2023-03-09T03:44:45;7.03;;;5.43;;
12788;SDS011;6458;42.710;23.192;2023-03-09T03:47:12;7.93;;;5.50;;
12788;SDS011;6458;42.710;23.192;2023-03-09T03:49:39;8.70;;;5.20;;
12788;SDS011;6458;42.710;23.192;2023-03-09T03:52:06;6.70;;;5.03;;
12788;SDS011;6458;42.710;23.192;2023-03-09T03:54:35;8.43;;;6.00;;
12788;SDS011;6458;42.710;23.192;2023-03-09T03:57:02;6.60;;;5.77;;
12788;SDS011;6458;42.710;23.192;2023-03-09T03:59:29;9.60;;;6.03;;
12788;SDS011;6458;42.710;23.192;2023-03-09T04:01:56;6.37;;;5.17;;
12788;SDS011;6458;42.710;23.192;2023-03-09T04:04:22;6.73;;;5.63;;
12788;SDS011;6458;42.710;23.192;2023-03-09T04:06:49;7.10;;;5.40;;
12788;SDS011;6458;42.710;23.192;2023-03-09T04:09:16;9.07;;;5.73;;
12788;SDS011;6458;42.710;23.192;2023-03-09T04:11:44;6.60;;;5.33;;
12788;SDS011;6458;42.710;23.192;2023-03-09T04:14:11;6.53;;;5.13;;
12788;SDS011;6458;42.710;23.192;2023-03-09T04:16:38;8.00;;;5.70;;
12788;SDS011;6458;42.710;23.192;2023-03-09T04:19:04;10.90;;;4.33;;
12788;SDS011;6458;42.710;23.192;2023-03-09T04:21:31;4.83;;;4.43;;
12788;SDS011;6458;42.710;23.192;2023-03-09T04:23:58;7.77;;;4.73;;
12788;SDS011;6458;42.710;23.192;2023-03-09T04:26:24;8.73;;;5.20;;
12788;SDS011;6458;42.710;23.192;2023-03-09T04:28:52;5.33;;;4.80;;
12788;SDS011;6458;42.710;23.192;2023-03-09T04:31:19;6.07;;;5.10;;
12788;SDS011;6458;42.710;23.192;2023-03-09T04:33:46;6.50;;;5.90;;
12788;SDS011;6458;42.710;23.192;2023-03-09T04:36:13;5.87;;;5.33;;
12788;SDS011;6458;42.710;23.192;2023-03-09T04:38:39;6.37;;;5.33;;
12788;SDS011;6458;42.710;23.192;2023-03-09T04:41:06;6.83;;;6.13;;
12788;SDS011;6458;42.710;23.192;2023-03-09T04:43:33;5.90;;;5.33;;
12788;SDS011;6458;42.710;23.192;2023-03-09T04:46:01;7.53;;;5.63;;
12788;SDS011;6458;42.710;23.192;2023-03-09T04:48:27;8.13;;;6.43;;
12788;SDS011;6458;42.710;23.192;2023-03-09T04:50:55;8.57;;;5.97;;
12788;SDS011;6458;42.710;23.192;2023-03-09T04:53:21;7.50;;;6.47;;
12788;SDS011;6458;42.710;23.192;2023-03-09T04:55:50;7.13;;;6.33;;
12788;SDS011;6458;42.710;23.192;2023-03-09T04:58:16;8.13;;;6.63;;
12788;SDS011;6458;42.710;23.192;2023-03-09T05:00:43;8.67;;;6.40;;
12788;SDS011;6458;42.710;23.192;2023-03-09T05:03:11;5.90;;;5.40;;
12788;SDS011;6458;42.710;23.192;2023-03-09T05:05:38;11.57;;;6.33;;
12788;SDS011;6458;42.710;23.192;2023-03-09T05:08:05;11.27;;;6.87;;
12788;SDS011;6458;42.710;23.192;2023-03-09T05:10:31;7.53;;;5.70;;
12788;SDS011;6458;42.710;23.192;2023-03-09T05:12:58;8.30;;;6.90;;
12788;SDS011;6458;42.710;23.192;2023-03-09T05:15:25;5.77;;;3.77;;
12788;SDS011;6458;42.710;23.192;2023-03-09T05:17:51;7.17;;;6.47;;
12788;SDS011;6458;42.710;23.192;2023-03-09T05:20:20;7.63;;;6.30;;
12788;SDS011;6458;42.710;23.192;2023-03-09T05:22:48;7.30;;;6.33;;
12788;SDS011;6458;42.710;23.192;2023-03-09T05:25:14;7.80;;;6.47;;
12788;SDS011;6458;42.710;23.192;2023-03-09T05:27:41;8.83;;;6.40;;
12788;SDS011;6458;42.710;23.192;2023-03-09T05:30:08;8.57;;;6.50;;
12788;SDS011;6458;42.710;23.192;2023-03-09T05:32:35;7.67;;;6.17;;
12788;SDS011;6458;42.710;23.192;2023-03-09T05:35:02;6.90;;;6.23;;
12788;SDS011;6458;42.710;23.192;2023-03-09T05:37:32;6.47;;;5.87;;
12788;SDS011;6458;42.710;23.192;2023-03-09T05:39:59;9.13;;;6.07;;
12788;SDS011;6458;42.710;23.192;2023-03-09T05:42:25;9.63;;;6.40;;
12788;SDS011;6458;42.710;23.192;2023-03-09T05:44:52;11.63;;;7.47;;
12788;SDS011;6458;42.710;23.192;2023-03-09T05:47:19;8.50;;;7.60;;
12788;SDS011;6458;42.710;23.192;2023-03-09T05:49:47;10.27;;;7.73;;
12788;SDS011;6458;42.710;23.192;2023-03-09T05:52:14;9.33;;;7.60;;
12788;SDS011;6458;42.710;23.192;2023-03-09T05:54:42;11.43;;;8.00;;
12788;SDS011;6458;42.710;23.192;2023-03-09T05:57:09;9.27;;;8.30;;
12788;SDS011;6458;42.710;23.192;2023-03-09T05:59:36;10.63;;;8.50;;
12788;SDS011;6458;42.710;23.192;2023-03-09T06:02:03;11.47;;;8.73;;
12788;SDS011;6458;42.710;23.192;2023-03-09T06:04:30;9.57;;;7.80;;
12788;SDS011;6458;42.710;23.192;2023-03-09T06:06:56;9.77;;;7.37;;
12788;SDS011;6458;42.710;23.192;2023-03-09T06:09:23;9.67;;;8.40;;
12788;SDS011;6458;42.710;23.192;2023-03-09T06:11:52;12.70;;;9.53;;
12788;SDS011;6458;42.710;23.192;2023-03-09T06:14:19;11.00;;;8.93;;
12788;SDS011;6458;42.710;23.192;2023-03-09T06:16:45;10.73;;;8.43;;
12788;SDS011;6458;42.710;23.192;2023-03-09T06:19:12;9.67;;;7.80;;
12788;SDS011;6458;42.710;23.192;2023-03-09T06:21:39;13.77;;;8.17;;
12788;SDS011;6458;42.710;23.192;2023-03-09T06:24:05;12.13;;;8.70;;
12788;SDS011;6458;42.710;23.192;2023-03-09T06:26:32;8.17;;;6.63;;
12788;SDS011;6458;42.710;23.192;2023-03-09T06:29:00;9.10;;;7.07;;
12788;SDS011;6458;42.710;23.192;2023-03-09T06:31:27;10.00;;;8.30;;
12788;SDS011;6458;42.710;23.192;2023-03-09T06:33:54;9.27;;;8.37;;
12788;SDS011;6458;42.710;23.192;2023-03-09T06:36:20;13.50;;;8.33;;
12788;SDS011;6458;42.710;23.192;2023-03-09T06:38:47;10.70;;;9.13;;
12788;SDS011;6458;42.710;23.192;2023-03-09T06:41:14;10.47;;;8.60;;
12788;SDS011;6458;42.710;23.192;2023-03-09T06:43:41;10.20;;;8.40;;
12788;SDS011;6458;42.710;23.192;2023-03-09T06:46:11;10.77;;;9.23;;
12788;SDS011;6458;42.710;23.192;2023-03-09T06:48:38;10.13;;;8.90;;
12788;SDS011;6458;42.710;23.192;2023-03-09T06:51:05;10.80;;;8.60;;
12788;SDS011;6458;42.710;23.192;2023-03-09T06:53:32;12.37;;;8.40;;
12788;SDS011;6458;42.710;23.192;2023-03-09T06:56:07;10.37;;;8.70;;
12788;SDS011;6458;42.710;23.192;2023-03-09T06:58:35;9.97;;;8.93;;
12788;SDS011;6458;42.710;23.192;2023-03-09T07:01:05;14.63;;;9.50;;
12788;SDS011;6458;42.710;23.192;2023-03-09T07:03:34;14.13;;;9.90;;
12788;SDS011;6458;42.710;23.192;2023-03-09T07:06:01;12.43;;;8.20;;
12788;SDS011;6458;42.710;23.192;2023-03-09T07:08:28;8.50;;;7.60;;
12788;SDS011;6458;42.710;23.192;2023-03-09T07:10:55;11.07;;;7.57;;
12788;SDS011;6458;42.710;23.192;2023-03-09T07:13:22;10.67;;;7.07;;
12788;SDS011;6458;42.710;23.192;2023-03-09T07:15:48;6.17;;;5.40;;
12788;SDS011;6458;42.710;23.192;2023-03-09T07:18:15;2.17;;;1.90;;
12788;SDS011;6458;42.710;23.192;2023-03-09T07:20:44;1.90;;;1.80;;
12788;SDS011;6458;42.710;23.192;2023-03-09T07:23:10;2.03;;;1.93;;
12788;SDS011;6458;42.710;23.192;2023-03-09T07:25:37;2.00;;;1.90;;
12788;SDS011;6458;42.710;23.192;2023-03-09T07:28:05;1.67;;;1.67;;
12788;SDS011;6458;42.710;23.192;2023-03-09T07:30:32;2.80;;;2.00;;
12788;SDS011;6458;42.710;23.192;2023-03-09T07:32:59;1.83;;;1.73;;
12788;SDS011;6458;42.710;23.192;2023-03-09T07:35:26;1.90;;;1.80;;
12788;SDS011;6458;42.710;23.192;2023-03-09T07:37:54;1.83;;;1.70;;
12788;SDS011;6458;42.710;23.192;2023-03-09T07:40:20;1.93;;;1.70;;
12788;SDS011;6458;42.710;23.192;2023-03-09T07:42:48;2.93;;;2.00;;
12788;SDS011;6458;42.710;23.192;2023-03-09T07:45:17;2.30;;;1.83;;
12788;SDS011;6458;42.710;23.192;2023-03-09T07:47:44;3.00;;;2.83;;
12788;SDS011;6458;42.710;23.192;2023-03-09T07:50:11;1.60;;;1.50;;
12788;SDS011;6458;42.710;23.192;2023-03-09T07:52:38;2.23;;;1.90;;
12788;SDS011;6458;42.710;23.192;2023-03-09T07:55:06;2.30;;;1.80;;
12788;SDS011;6458;42.710;23.192;2023-03-09T07:57:34;1.60;;;1.60;;
12788;SDS011;6458;42.710;23.192;2023-03-09T08:00:01;2.13;;;1.80;;
12788;SDS011;6458;42.710;23.192;2023-03-09T08:02:32;1.70;;;1.70;;
12788;SDS011;6458;42.710;23.192;2023-03-09T08:04:59;1.67;;;1.60;;
12788;SDS011;6458;42.710;23.192;2023-03-09T08:07:25;2.00;;;1.90;;
12788;SDS011;6458;42.710;23.192;2023-03-09T08:09:52;1.60;;;1.50;;
12788;SDS011;6458;42.710;23.192;2023-03-09T08:12:20;2.00;;;1.90;;
12788;SDS011;6458;42.710;23.192;2023-03-09T08:14:46;1.80;;;1.73;;
12788;SDS011;6458;42.710;23.192;2023-03-09T08:17:13;1.90;;;1.80;;
12788;SDS011;6458;42.710;23.192;2023-03-09T08:19:40;2.00;;;1.90;;
12788;SDS011;6458;42.710;23.192;2023-03-09T08:22:07;1.50;;;1.50;;
12788;SDS011;6458;42.710;23.192;2023-03-09T08:24:34;1.87;;;1.77;;
12788;SDS011;6458;42.710;23.192;2023-03-09T08:27:00;1.97;;;1.50;;
12788;SDS011;6458;42.710;23.192;2023-03-09T08:29:28;1.83;;;1.73;;
12788;SDS011;6458;42.710;23.192;2023-03-09T08:31:55;1.57;;;1.50;;
12788;SDS011;6458;42.710;23.192;2023-03-09T08:34:22;1.53;;;1.43;;
12788;SDS011;6458;42.710;23.192;2023-03-09T08:36:48;1.60;;;1.60;;
12788;SDS011;6458;42.710;23.192;2023-03-09T08:39:15;1.50;;;1.40;;
12788;SDS011;6458;42.710;23.192;2023-03-09T08:41:41;1.70;;;1.60;;
12788;SDS011;6458;42.710;23.192;2023-03-09T08:44:08;3.00;;;1.60;;
12788;SDS011;6458;42.710;23.192;2023-03-09T08:46:36;1.70;;;1.60;;
12788;SDS011;6458;42.710;23.192;2023-03-09T08:49:03;1.70;;;1.60;;
12788;SDS011;6458;42.710;23.192;2023-03-09T08:51:30;2.83;;;1.53;;
12788;SDS011;6458;42.710;23.192;2023-03-09T08:53:56;2.00;;;1.90;;
12788;SDS011;6458;42.710;23.192;2023-03-09T08:56:23;1.63;;;1.53;;
12788;SDS011;6458;42.710;23.192;2023-03-09T08:58:50;1.73;;;1.40;;
12788;SDS011;6458;42.710;23.192;2023-03-09T09:01:16;1.43;;;1.43;;
12788;SDS011;6458;42.710;23.192;2023-03-09T09:03:45;1.50;;;1.40;;
12788;SDS011;6458;42.710;23.192;2023-03-09T09:06:12;1.83;;;1.70;;
12788;SDS011;6458;42.710;23.192;2023-03-09T09:08:40;1.50;;;1.40;;
12788;SDS011;6458;42.710;23.192;2023-03-09T09:11:08;3.03;;;2.83;;
12788;SDS011;6458;42.710;23.192;2023-03-09T09:13:35;4.37;;;1.70;;
12788;SDS011;6458;42.710;23.192;2023-03-09T09:16:02;2.00;;;1.90;;
12788;SDS011;6458;42.710;23.192;2023-03-09T09:18:30;1.70;;;1.43;;
12788;SDS011;6458;42.710;23.192;2023-03-09T09:20:58;1.83;;;1.73;;
12788;SDS011;6458;42.710;23.192;2023-03-09T09:23:25;2.50;;;2.10;;
12788;SDS011;6458;42.710;23.192;2023-03-09T09:25:55;2.57;;;1.80;;
12788;SDS011;6458;42.710;23.192;2023-03-09T09:28:22;1.70;;;1.60;;
12788;SDS011;6458;42.710;23.192;2023-03-09T09:30:52;2.20;;;2.03;;
12788;SDS011;6458;42.710;23.192;2023-03-09T09:33:19;1.50;;;1.40;;
12788;SDS011;6458;42.710;23.192;2023-03-09T09:35:53;2.10;;;1.63;;
12788;SDS011;6458;42.710;23.192;2023-03-09T09:38:21;3.33;;;1.50;;
12788;SDS011;6458;42.710;23.192;2023-03-09T09:40:48;1.70;;;1.60;;
12788;SDS011;6458;42.710;23.192;2023-03-09T09:43:15;1.60;;;1.60;;
12788;SDS011;6458;42.710;23.192;2023-03-09T09:45:42;1.40;;;1.40;;
12788;SDS011;6458;42.710;23.192;2023-03-09T09:48:11;1.77;;;1.40;;
12788;SDS011;6458;42.710;23.192;2023-03-09T09:50:44;1.77;;;1.67;;
12788;SDS011;6458;42.710;23.192;2023-03-09T09:53:16;1.80;;;1.70;;
12788;SDS011;6458;42.710;23.192;2023-03-09T09:55:49;3.70;;;1.60;;
12788;SDS011;6458;42.710;23.192;2023-03-09T09:58:20;2.07;;;1.50;;
12788;SDS011;6458;42.710;23.192;2023-03-09T10:00:50;1.80;;;1.60;;
12788;SDS011;6458;42.710;23.192;2023-03-09T10:03:20;1.93;;;1.57;;
12788;SDS011;6458;42.710;23.192;2023-03-09T10:05:48;1.40;;;1.30;;
12788;SDS011;6458;42.710;23.192;2023-03-09T10:08:20;1.60;;;1.57;;
12788;SDS011;6458;42.710;23.192;2023-03-09T10:10:50;1.90;;;1.67;;
12788;SDS011;6458;42.710;23.192;2023-03-09T10:13:19;2.03;;;1.90;;
12788;SDS011;6458;42.710;23.192;2023-03-09T10:15:46;1.80;;;1.30;;
12788;SDS011;6458;42.710;23.192;2023-03-09T10:18:14;1.47;;;1.47;;
12788;SDS011;6458;42.710;23.192;2023-03-09T10:20:44;1.60;;;1.50;;
12788;SDS011;6458;42.710;23.192;2023-03-09T10:23:15;1.40;;;1.37;;
12788;SDS011;6458;42.710;23.192;2023-03-09T10:25:43;1.60;;;1.50;;
12788;SDS011;6458;42.710;23.192;2023-03-09T10:28:12;2.90;;;1.60;;
12788;SDS011;6458;42.710;23.192;2023-03-09T10:30:42;1.70;;;1.60;;
12788;SDS011;6458;42.710;23.192;2023-03-09T10:33:13;1.67;;;1.57;;
12788;SDS011;6458;42.710;23.192;2023-03-09T10:35:43;2.87;;;1.30;;
12788;SDS011;6458;42.710;23.192;2023-03-09T10:38:13;2.97;;;1.87;;
12788;SDS011;6458;42.710;23.192;2023-03-09T10:40:41;3.33;;;1.50;;
12788;SDS011;6458;42.710;23.192;2023-03-09T10:43:09;1.50;;;1.40;;
12788;SDS011;6458;42.710;23.192;2023-03-09T10:45:40;1.23;;;1.23;;
12788;SDS011;6458;42.710;23.192;2023-03-09T10:48:06;1.30;;;1.20;;
12788;SDS011;6458;42.710;23.192;2023-03-09T10:50:34;1.70;;;1.60;;
12788;SDS011;6458;42.710;23.192;2023-03-09T10:53:16;1.23;;;1.23;;
12788;SDS011;6458;42.710;23.192;2023-03-09T10:55:47;1.50;;;1.40;;
12788;SDS011;6458;42.710;23.192;2023-03-09T10:58:16;1.47;;;1.37;;
12788;SDS011;6458;42.710;23.192;2023-03-09T11:00:52;1.50;;;1.50;;
12788;SDS011;6458;42.710;23.192;2023-03-09T11:03:19;2.50;;;1.50;;
12788;SDS011;6458;42.710;23.192;2023-03-09T11:05:46;1.37;;;1.30;;
12788;SDS011;6458;42.710;23.192;2023-03-09T11:08:20;1.43;;;1.33;;
12788;SDS011;6458;42.710;23.192;2023-03-09T11:10:47;1.77;;;1.50;;
12788;SDS011;6458;42.710;23.192;2023-03-09T11:13:26;1.30;;;1.30;;
12788;SDS011;6458;42.710;23.192;2023-03-09T11:16:04;1.23;;;1.20;;
12788;SDS011;6458;42.710;23.192;2023-03-09T11:18:31;1.40;;;1.30;;
12788;SDS011;6458;42.710;23.192;2023-03-09T11:20:58;1.20;;;1.20;;
12788;SDS011;6458;42.710;23.192;2023-03-09T11:23:26;2.47;;;1.97;;
12788;SDS011;6458;42.710;23.192;2023-03-09T11:26:07;3.60;;;2.20;;
12788;SDS011;6458;42.710;23.192;2023-03-09T11:28:41;1.70;;;1.60;;
12788;SDS011;6458;42.710;23.192;2023-03-09T11:31:12;2.20;;;1.50;;
12788;SDS011;6458;42.710;23.192;2023-03-09T11:33:39;1.40;;;1.40;;
12788;SDS011;6458;42.710;23.192;2023-03-09T11:36:08;1.93;;;1.60;;
12788;SDS011;6458;42.710;23.192;2023-03-09T11:38:36;1.30;;;1.30;;
12788;SDS011;6458;42.710;23.192;2023-03-09T11:41:05;1.60;;;1.60;;
12788;SDS011;6458;42.710;23.192;2023-03-09T11:43:34;1.80;;;1.37;;
12788;SDS011;6458;42.710;23.192;2023-03-09T11:46:03;1.73;;;1.63;;
12788;SDS011;6458;42.710;23.192;2023-03-09T11:48:34;1.60;;;1.50;;
12788;SDS011;6458;42.710;23.192;2023-03-09T11:51:03;1.60;;;1.50;;
12788;SDS011;6458;42.710;23.192;2023-03-09T11:53:33;1.20;;;1.20;;
12788;SDS011;6458;42.710;23.192;2023-03-09T11:56:10;1.30;;;1.30;;
12788;SDS011;6458;42.710;23.192;2023-03-09T11:58:38;2.23;;;1.37;;
12788;SDS011;6458;42.710;23.192;2023-03-09T12:01:08;1.63;;;1.23;;
12788;SDS011;6458;42.710;23.192;2023-03-09T12:03:39;1.53;;;1.53;;
12788;SDS011;6458;42.710;23.192;2023-03-09T12:06:13;1.50;;;1.40;;
12788;SDS011;6458;42.710;23.192;2023-03-09T12:08:43;1.23;;;1.17;;
12788;SDS011;6458;42.710;23.192;2023-03-09T12:11:13;2.03;;;1.23;;
12788;SDS011;6458;42.710;23.192;2023-03-09T12:13:43;1.60;;;1.50;;
12788;SDS011;6458;42.710;23.192;2023-03-09T12:16:12;1.13;;;1.13;;
12788;SDS011;6458;42.710;23.192;2023-03-09T12:18:43;1.27;;;1.10;;
12788;SDS011;6458;42.710;23.192;2023-03-09T12:21:11;1.50;;;1.40;;
12788;SDS011;6458;42.710;23.192;2023-03-09T12:23:40;1.20;;;1.20;;
12788;SDS011;6458;42.710;23.192;2023-03-09T12:26:17;1.23;;;1.23;;
12788;SDS011;6458;42.710;23.192;2023-03-09T12:28:54;1.53;;;1.40;;
12788;SDS011;6458;42.710;23.192;2023-03-09T12:34:25;1.27;;;1.27;;
12788;SDS011;6458;42.710;23.192;2023-03-09T12:36:53;1.50;;;1.40;;
12788;SDS011;6458;42.710;23.192;2023-03-09T12:39:38;1.10;;;1.10;;
12788;SDS011;6458;42.710;23.192;2023-03-09T12:44:59;1.77;;;1.33;;
12788;SDS011;6458;42.710;23.192;2023-03-09T12:47:34;1.10;;;1.10;;
12788;SDS011;6458;42.710;23.192;2023-03-09T12:50:02;2.10;;;1.20;;
12788;SDS011;6458;42.710;23.192;2023-03-09T12:55:18;1.00;;;1.00;;
12788;SDS011;6458;42.710;23.192;2023-03-09T12:57:46;1.50;;;1.47;;
12788;SDS011;6458;42.710;23.192;2023-03-09T13:00:20;2.00;;;1.47;;
12788;SDS011;6458;42.710;23.192;2023-03-09T13:02:48;1.53;;;1.43;;
12788;SDS011;6458;42.710;23.192;2023-03-09T13:08:03;1.50;;;1.40;;
12788;SDS011;6458;42.710;23.192;2023-03-09T13:10:32;2.87;;;1.47;;
12788;SDS011;6458;42.710;23.192;2023-03-09T13:15:49;1.30;;;1.30;;
12788;SDS011;6458;42.710;23.192;2023-03-09T13:18:23;1.53;;;1.53;;
12788;SDS011;6458;42.710;23.192;2023-03-09T13:20:51;1.37;;;1.37;;
12788;SDS011;6458;42.710;23.192;2023-03-09T13:23:20;1.37;;;1.37;;
12788;SDS011;6458;42.710;23.192;2023-03-09T13:25:47;1.53;;;1.43;;
12788;SDS011;6458;42.710;23.192;2023-03-09T13:28:17;10.37;;;2.00;;
12788;SDS011;6458;42.710;23.192;2023-03-09T13:30:46;1.43;;;1.03;;
12788;SDS011;6458;42.710;23.192;2023-03-09T13:33:15;1.30;;;1.27;;
12788;SDS011;6458;42.710;23.192;2023-03-09T13:35:47;1.40;;;1.30;;
12788;SDS011;6458;42.710;23.192;2023-03-09T13:38:17;1.40;;;1.30;;
12788;SDS011;6458;42.710;23.192;2023-03-09T13:40:49;2.30;;;1.13;;
12788;SDS011;6458;42.710;23.192;2023-03-09T13:43:16;1.20;;;1.20;;
12788;SDS011;6458;42.710;23.192;2023-03-09T13:45:53;1.20;;;1.13;;
12788;SDS011;6458;42.710;23.192;2023-03-09T13:48:20;1.47;;;1.27;;
12788;SDS011;6458;42.710;23.192;2023-03-09T13:50:46;1.33;;;1.30;;
12788;SDS011;6458;42.710;23.192;2023-03-09T13:53:20;1.17;;;1.17;;
12788;SDS011;6458;42.710;23.192;2023-03-09T13:55:54;1.10;;;1.10;;
12788;SDS011;6458;42.710;23.192;2023-03-09T13:58:21;1.67;;;1.33;;
12788;SDS011;6458;42.710;23.192;2023-03-09T14:00:50;1.40;;;1.30;;
12788;SDS011;6458;42.710;23.192;2023-03-09T14:03:17;2.50;;;1.30;;
12788;SDS011;6458;42.710;23.192;2023-03-09T14:05:52;1.37;;;1.30;;
12788;SDS011;6458;42.710;23.192;2023-03-09T14:08:19;1.80;;;1.70;;
12788;SDS011;6458;42.710;23.192;2023-03-09T14:10:46;1.70;;;1.60;;
12788;SDS011;6458;42.710;23.192;2023-03-09T14:13:15;1.53;;;1.40;;
12788;SDS011;6458;42.710;23.192;2023-03-09T14:15:44;1.23;;;1.10;;
12788;SDS011;6458;42.710;23.192;2023-03-09T14:18:17;1.10;;;1.10;;
12788;SDS011;6458;42.710;23.192;2023-03-09T14:20:49;1.00;;;1.00;;
12788;SDS011;6458;42.710;23.192;2023-03-09T14:23:16;1.30;;;1.20;;
12788;SDS011;6458;42.710;23.192;2023-03-09T14:25:42;1.20;;;1.20;;
12788;SDS011;6458;42.710;23.192;2023-03-09T14:28:24;1.10;;;1.10;;
12788;SDS011;6458;42.710;23.192;2023-03-09T14:30:51;1.20;;;1.20;;
12788;SDS011;6458;42.710;23.192;2023-03-09T14:33:21;1.27;;;1.23;;
12788;SDS011;6458;42.710;23.192;2023-03-09T14:35:48;1.63;;;1.53;;
12788;SDS011;6458;42.710;23.192;2023-03-09T14:38:16;1.50;;;1.50;;
12788;SDS011;6458;42.710;23.192;2023-03-09T14:40:43;1.40;;;1.30;;
12788;SDS011;6458;42.710;23.192;2023-03-09T14:43:20;1.40;;;1.40;;
12788;SDS011;6458;42.710;23.192;2023-03-09T14:45:48;1.33;;;1.10;;
12788;SDS011;6458;42.710;23.192;2023-03-09T14:48:15;1.33;;;1.33;;
12788;SDS011;6458;42.710;23.192;2023-03-09T14:50:44;1.30;;;1.30;;
12788;SDS011;6458;42.710;23.192;2023-03-09T14:53:11;2.13;;;1.30;;
12788;SDS011;6458;42.710;23.192;2023-03-09T14:55:39;1.40;;;1.40;;
12788;SDS011;6458;42.710;23.192;2023-03-09T14:58:08;1.27;;;1.27;;
12788;SDS011;6458;42.710;23.192;2023-03-09T15:00:35;2.30;;;1.60;;
12788;SDS011;6458;42.710;23.192;2023-03-09T15:03:03;1.63;;;1.50;;
12788;SDS011;6458;42.710;23.192;2023-03-09T15:05:30;2.17;;;1.70;;
12788;SDS011;6458;42.710;23.192;2023-03-09T15:07:57;2.77;;;1.50;;
12788;SDS011;6458;42.710;23.192;2023-03-09T15:10:24;1.80;;;1.50;;
12788;SDS011;6458;42.710;23.192;2023-03-09T15:12:52;2.83;;;1.60;;
12788;SDS011;6458;42.710;23.192;2023-03-09T15:15:20;1.90;;;1.80;;